Time;durP1;ratioP1;P1;durP2;ratioP2;P2;SDS_P1;SDS_P2;PMS_P1;PMS_P2;Temp;Humidity;BMP_temperature;BMP_pressure;BME280_temperature;BME280_humidity;BME280_pressure;Samples;Min_cycle;Max_cycle;Signal;HPM_P1;HPM_P2
2022/08/23 00:01:41;;;;;;;1999.90;999.90;;;;;;;-144.65;100.00;64500.88;5038642;28;20025;-83
2022/08/23 00:04:17;;;;;;;1999.90;999.90;;;;;;;-144.65;100.00;64500.88;5037827;28;20029;-85
2022/08/23 00:06:44;;;;;;;1999.90;999.90;;;;;;;-144.65;100.00;64500.88;5037378;28;20032;-82
2022/08/23 00:09:09;;;;;;;1999.90;999.90;;;;;;;-144.65;100.00;64500.88;5019868;28;20089;-81
2022/08/23 00:11:44;;;;;;;1999.90;999.90;;;;;;;-144.65;100.00;64500.88;5020420;28;20013;-87
2022/08/23 00:14:22;;;;;;;1999.90;999.90;;;;;;;-144.65;100.00;64500.88;5039242;28;20041;-82
2022/08/23 00:16:48;;;;;;;1999.90;999.90;;;;;;;-144.65;100.00;64500.88;5039075;28;20058;-85
2022/08/23 00:19:16;;;;;;;1999.90;999.90;;;;;;;-144.65;100.00;64500.88;5037621;28;20018;-84
2022/08/23 00:21:42;;;;;;;1999.90;999.90;;;;;;;-144.65;100.00;64500.88;5037174;28;20048;-86
2022/08/23 00:24:10;;;;;;;1999.90;999.90;;;;;;;-144.65;100.00;64500.88;5037083;28;20032;-86
2022/08/23 00:26:54;;;;;;;1999.90;999.90;;;;;;;-144.65;100.00;64500.88;5036380;28;20018;-82
2022/08/23 00:29:21;;;;;;;1999.90;999.90;;;;;;;-144.65;100.00;64500.88;5035004;28;20026;-84
2022/08/23 00:31:46;;;;;;;1999.90;999.90;;;;;;;-144.65;100.00;64500.88;5019057;28;20036;-86
2022/08/23 00:34:12;;;;;;;1999.90;999.90;;;;;;;-144.65;100.00;64500.88;5021043;28;20518;-86
2022/08/23 00:36:38;;;;;;;1999.90;999.90;;;;;;;-144.65;100.00;64500.88;5036789;28;20018;-84
2022/08/23 00:39:04;;;;;;;1999.90;999.90;;;;;;;-144.65;100.00;64500.88;5036833;28;20034;-84
2022/08/23 00:41:32;;;;;;;1999.90;999.90;;;;;;;-144.65;100.00;64500.88;5036838;28;20057;-83
2022/08/23 00:49:35;;;;;;;1999.90;999.90;;;;;;;-144.65;100.00;64500.88;5035748;28;20068;-84
2022/08/23 00:52:34;;;;;;;1999.90;999.90;;;;;;;-144.65;100.00;64500.88;5018804;28;20030;-83
2022/08/23 00:55:00;;;;;;;1999.90;999.90;;;;;;;-144.65;100.00;64500.88;5036997;28;20052;-84
2022/08/23 00:57:27;;;;;;;1999.90;999.90;;;;;;;-144.65;100.00;64500.88;5037683;28;20014;-87
2022/08/23 00:59:52;;;;;;;1999.90;999.90;;;;;;;-144.65;100.00;64500.88;5035432;28;20014;-86
2022/08/23 01:02:19;;;;;;;1999.90;999.90;;;;;;;-144.65;100.00;64500.88;5018576;28;20036;-86
2022/08/23 01:04:51;;;;;;;1999.90;999.90;;;;;;;-144.65;100.00;64500.88;5036325;28;20104;-85
2022/08/23 01:07:28;;;;;;;1999.90;999.90;;;;;;;-144.65;100.00;64500.88;5017270;28;20026;-84
2022/08/23 01:09:58;;;;;;;1999.90;999.90;;;;;;;-144.65;100.00;64500.88;5018394;28;20021;-79
2022/08/23 01:12:32;;;;;;;1999.90;999.90;;;;;;;-144.65;100.00;64500.88;5018459;28;20021;-84
2022/08/23 01:15:09;;;;;;;1999.90;999.90;;;;;;;-144.65;100.00;64500.88;5018314;28;20041;-85
2022/08/23 01:17:40;;;;;;;1999.90;999.90;;;;;;;-144.65;100.00;64500.88;5019129;28;20030;-79
2022/08/23 01:20:11;;;;;;;1999.90;999.90;;;;;;;-144.65;100.00;64500.88;5001712;28;20049;-81
2022/08/23 01:22:51;;;;;;;1999.90;999.90;;;;;;;-144.65;100.00;64500.88;5018389;28;20010;-84
2022/08/23 01:25:20;;;;;;;1999.90;999.90;;;;;;;-144.65;100.00;64500.88;5018061;28;20022;-87
2022/08/23 01:27:46;;;;;;;1999.90;999.90;;;;;;;-144.65;100.00;64500.88;5018252;28;20010;-84
2022/08/23 01:30:14;;;;;;;1999.90;999.90;;;;;;;-144.65;100.00;64500.88;5018283;28;20037;-81
2022/08/23 01:32:46;;;;;;;1999.90;999.90;;;;;;;-144.65;100.00;64500.88;5018149;28;20038;-77
2022/08/23 01:35:12;;;;;;;1999.90;999.90;;;;;;;-144.65;100.00;64500.88;5017902;28;20106;-81
2022/08/23 01:37:39;;;;;;;1999.90;999.90;;;;;;;-144.65;100.00;64500.88;5000852;28;20026;-83
2022/08/23 01:40:05;;;;;;;1999.90;999.90;;;;;;;-144.65;100.00;64500.88;5001188;28;20038;-80
2022/08/23 01:42:30;;;;;;;1999.90;999.90;;;;;;;-144.65;100.00;64500.88;5018207;28;20077;-78
2022/08/23 01:44:55;;;;;;;1999.90;999.90;;;;;;;-144.65;100.00;64500.88;5018398;28;20014;-76
2022/08/23 01:47:21;;;;;;;1999.90;999.90;;;;;;;-144.65;100.00;64500.88;5018651;28;20027;-81
2022/08/23 01:49:46;;;;;;;1999.90;999.90;;;;;;;-144.65;100.00;64500.88;5017019;28;19998;-82
2022/08/23 01:52:12;;;;;;;1999.90;999.90;;;;;;;-144.65;100.00;64500.88;5005363;28;20010;-82
2022/08/23 01:54:39;;;;;;;1999.90;999.90;;;;;;;-144.65;100.00;64500.88;5017761;28;20038;-85
2022/08/23 01:57:06;;;;;;;1999.90;999.90;;;;;;;-144.65;100.00;64500.88;5000898;28;20027;-83
2022/08/23 01:59:32;;;;;;;1999.90;999.90;;;;;;;-144.65;100.00;64500.88;5016706;28;20034;-81
2022/08/23 02:01:58;;;;;;;1999.90;999.90;;;;;;;-144.65;100.00;64500.88;4999799;28;20129;-85
2022/08/23 02:04:24;;;;;;;1999.90;999.90;;;;;;;-144.65;100.00;64500.88;5016956;28;20011;-83
2022/08/23 02:06:50;;;;;;;1999.90;999.90;;;;;;;-144.65;100.00;64500.88;5001484;28;20006;-85
2022/08/23 02:09:15;;;;;;;1999.90;999.90;;;;;;;-144.65;100.00;64500.88;5053797;28;20141;-86
2022/08/23 02:11:42;;;;;;;1999.90;999.90;;;;;;;-144.65;100.00;64500.88;5053941;28;20068;-83
2022/08/23 02:14:12;;;;;;;1999.90;999.90;;;;;;;-144.65;100.00;64500.88;5038767;28;20037;-82
2022/08/23 02:16:43;;;;;;;1999.90;999.90;;;;;;;-144.65;100.00;64500.88;5056499;28;20037;-85
2022/08/23 02:19:11;;;;;;;1999.90;999.90;;;;;;;-144.65;100.00;64500.88;5056351;28;20017;-83
2022/08/23 02:21:37;;;;;;;1999.90;999.90;;;;;;;-144.65;100.00;64500.88;5055223;28;20032;-85
2022/08/23 02:24:09;;;;;;;1999.90;999.90;;;;;;;-144.65;100.00;64500.88;5053854;28;20005;-84
2022/08/23 02:26:36;;;;;;;1999.90;999.90;;;;;;;-144.65;100.00;64500.88;5053724;28;20013;-85
2022/08/23 02:29:03;;;;;;;1999.90;999.90;;;;;;;-144.65;100.00;64500.88;5051308;28;20025;-84
2022/08/23 02:31:28;;;;;;;1999.90;999.90;;;;;;;-144.65;100.00;64500.88;5036306;28;20089;-85
2022/08/23 02:33:54;;;;;;;1999.90;999.90;;;;;;;-144.65;100.00;64500.88;5052563;28;20060;-83
2022/08/23 02:36:19;;;;;;;1999.90;999.90;;;;;;;-144.65;100.00;64500.88;5040127;28;20014;-83
2022/08/23 02:38:45;;;;;;;1999.90;999.90;;;;;;;-144.65;100.00;64500.88;5056206;28;20025;-81
2022/08/23 02:41:10;;;;;;;1999.90;999.90;;;;;;;-144.65;100.00;64500.88;5056658;28;20029;-84
2022/08/23 02:43:36;;;;;;;1999.90;999.90;;;;;;;-144.65;100.00;64500.88;5057164;28;20029;-79
2022/08/23 02:46:05;;;;;;;1999.90;999.90;;;;;;;-144.65;100.00;64500.88;5056933;28;20010;-86
2022/08/23 02:48:31;;;;;;;1999.90;999.90;;;;;;;-144.65;100.00;64500.88;5057082;28;20113;-84
2022/08/23 02:51:02;;;;;;;1999.90;999.90;;;;;;;-144.65;100.00;64500.88;5060445;28;20020;-84
2022/08/23 02:53:28;;;;;;;1999.90;999.90;;;;;;;-144.65;100.00;64500.88;5060700;28;20036;-78
2022/08/23 02:55:54;;;;;;;1999.90;999.90;;;;;;;-144.65;100.00;64500.88;5058276;28;20029;-83
2022/08/23 02:58:19;;;;;;;1999.90;999.90;;;;;;;-144.65;100.00;64500.88;5041385;28;20091;-80
2022/08/23 03:00:47;;;;;;;1999.90;999.90;;;;;;;-144.65;100.00;64500.88;5057849;28;20048;-83
2022/08/23 03:03:12;;;;;;;1999.90;999.90;;;;;;;-144.65;100.00;64500.88;5056337;28;20030;-83
2022/08/23 03:05:37;;;;;;;1999.90;999.90;;;;;;;-144.65;100.00;64500.88;5038595;28;20026;-82
2022/08/23 03:08:04;;;;;;;1999.90;999.90;;;;;;;-144.65;100.00;64500.88;5039632;28;20037;-85
2022/08/23 03:10:29;;;;;;;1999.90;999.90;;;;;;;-144.65;100.00;64500.88;5056863;28;20030;-84
2022/08/23 03:12:55;;;;;;;1999.90;999.90;;;;;;;-144.65;100.00;64500.88;5039564;28;20057;-84
2022/08/23 03:15:20;;;;;;;1999.90;999.90;;;;;;;-144.65;100.00;64500.88;5056820;28;20029;-83
2022/08/23 03:17:46;;;;;;;1999.90;999.90;;;;;;;-144.65;100.00;64500.88;5056415;28;20021;-85
2022/08/23 03:20:11;;;;;;;1999.90;999.90;;;;;;;-144.65;100.00;64500.88;5056408;28;20116;-85
2022/08/23 03:22:37;;;;;;;1999.90;999.90;;;;;;;-144.65;100.00;64500.88;5056689;28;20032;-84
2022/08/23 03:25:04;;;;;;;1999.90;999.90;;;;;;;-144.65;100.00;64500.88;5057271;28;20030;-83
2022/08/23 03:27:30;;;;;;;1999.90;999.90;;;;;;;-144.65;100.00;64500.88;5039397;28;20027;-82
2022/08/23 03:29:56;;;;;;;1999.90;999.90;;;;;;;-144.65;100.00;64500.88;5057040;28;20016;-83
2022/08/23 03:32:21;;;;;;;1999.90;999.90;;;;;;;-144.65;100.00;64500.88;5057763;28;20045;-84
2022/08/23 03:34:47;;;;;;;1999.90;999.90;;;;;;;-144.65;100.00;64500.88;5057298;28;20021;-82
2022/08/23 03:37:13;;;;;;;1999.90;999.90;;;;;;;-144.65;100.00;64500.88;5057521;28;20506;-85
2022/08/23 03:39:38;;;;;;;1999.90;999.90;;;;;;;-144.65;100.00;64500.88;5057216;28;20089;-85
2022/08/23 03:42:04;;;;;;;1999.90;999.90;;;;;;;-144.65;100.00;64500.88;5056436;28;20026;-85
2022/08/23 03:44:30;;;;;;;1999.90;999.90;;;;;;;-144.65;100.00;64500.88;5056437;28;20017;-85
2022/08/23 03:46:55;;;;;;;1999.90;999.90;;;;;;;-144.65;100.00;64500.88;5057488;28;20064;-85
2022/08/23 03:49:21;;;;;;;1999.90;999.90;;;;;;;-144.65;100.00;64500.88;5039925;28;20060;-85
2022/08/23 03:51:46;;;;;;;1999.90;999.90;;;;;;;-144.65;100.00;64500.88;5039545;28;20013;-84
2022/08/23 03:54:11;;;;;;;1999.90;999.90;;;;;;;-144.65;100.00;64500.88;5057288;28;20024;-83
2022/08/23 03:56:48;;;;;;;1999.90;999.90;;;;;;;-144.65;100.00;64500.88;5057587;28;20111;-85
2022/08/23 03:59:13;;;;;;;1999.90;999.90;;;;;;;-144.65;100.00;64500.88;5040008;28;20055;-84
2022/08/23 04:01:39;;;;;;;1999.90;999.90;;;;;;;-144.65;100.00;64500.88;5057241;28;20013;-81
2022/08/23 04:04:04;;;;;;;1999.90;999.90;;;;;;;-144.65;100.00;64500.88;5058037;28;20105;-81
2022/08/23 04:06:31;;;;;;;1999.90;999.90;;;;;;;-144.65;100.00;64500.88;5041235;28;20002;-81
2022/08/23 04:08:57;;;;;;;1999.90;999.90;;;;;;;-144.65;100.00;64500.88;5058851;28;20045;-81
2022/08/23 04:11:24;;;;;;;1999.90;999.90;;;;;;;-144.65;100.00;64500.88;5057980;28;20041;-80
2022/08/23 04:13:50;;;;;;;1999.90;999.90;;;;;;;-144.65;100.00;64500.88;5057725;28;20029;-82
2022/08/23 04:16:17;;;;;;;1999.90;999.90;;;;;;;-144.65;100.00;64500.88;5058041;28;20028;-85
2022/08/23 04:18:43;;;;;;;1999.90;999.90;;;;;;;-144.65;100.00;64500.88;5041020;28;20073;-80
2022/08/23 04:21:13;;;;;;;1999.90;999.90;;;;;;;-144.65;100.00;64500.88;5058308;28;20022;-82
2022/08/23 04:23:39;;;;;;;1999.90;999.90;;;;;;;-144.65;100.00;64500.88;5041263;28;20029;-83
2022/08/23 04:26:05;;;;;;;1999.90;999.90;;;;;;;-144.65;100.00;64500.88;5039814;28;20034;-82
2022/08/23 04:28:32;;;;;;;1999.90;999.90;;;;;;;-144.65;100.00;64500.88;5057415;28;20021;-84
2022/08/23 04:31:02;;;;;;;1999.90;999.90;;;;;;;-144.65;100.00;64500.88;5057305;28;20005;-82
2022/08/23 04:33:30;;;;;;;1999.90;999.90;;;;;;;-144.65;100.00;64500.88;5056758;28;20025;-85
2022/08/23 04:35:57;;;;;;;1999.90;999.90;;;;;;;-144.65;100.00;64500.88;5057148;28;20034;-84
2022/08/23 04:38:22;;;;;;;1999.90;999.90;;;;;;;-144.65;100.00;64500.88;5056894;28;20025;-84
2022/08/23 04:43:31;;;;;;;1999.90;999.90;;;;;;;-144.65;100.00;64500.88;5019506;28;20037;-82
2022/08/23 04:45:57;;;;;;;1999.90;999.90;;;;;;;-144.65;100.00;64500.88;5000480;28;20022;-81
2022/08/23 04:48:22;;;;;;;1999.90;999.90;;;;;;;-144.65;100.00;64500.88;5001691;28;20045;-82
2022/08/23 04:50:48;;;;;;;1999.90;999.90;;;;;;;-144.65;100.00;64500.88;5014775;28;20058;-82
2022/08/23 04:53:14;;;;;;;1999.90;999.90;;;;;;;-144.65;100.00;64500.88;5016241;28;20029;-80
2022/08/23 04:55:40;;;;;;;1999.90;999.90;;;;;;;-144.65;100.00;64500.88;4982743;28;20499;-73
2022/08/23 04:58:06;;;;;;;1999.90;999.90;;;;;;;-144.65;100.00;64500.88;4977737;28;20037;-74
2022/08/23 05:00:31;;;;;;;1999.90;999.90;;;;;;;-144.65;100.00;64500.88;5002373;28;20019;-78
2022/08/23 05:02:57;;;;;;;1999.90;999.90;;;;;;;-144.65;100.00;64500.88;5002358;28;20113;-78
2022/08/23 05:05:23;;;;;;;1999.90;999.90;;;;;;;-144.65;100.00;64500.88;5004840;28;20104;-79
2022/08/23 05:07:48;;;;;;;1999.90;999.90;;;;;;;-144.65;100.00;64500.88;4998486;28;20023;-76
2022/08/23 05:10:15;;;;;;;1999.90;999.90;;;;;;;-144.65;100.00;64500.88;5006334;28;20014;-80
2022/08/23 05:12:41;;;;;;;1999.90;999.90;;;;;;;-144.65;100.00;64500.88;5014531;28;20547;-78
2022/08/23 05:15:11;;;;;;;1999.90;999.90;;;;;;;-144.65;100.00;64500.88;5001373;28;20058;-78
2022/08/23 05:17:37;;;;;;;1999.90;999.90;;;;;;;-144.65;100.00;64500.88;4997851;28;20026;-80
2022/08/23 05:20:05;;;;;;;1999.90;999.90;;;;;;;-144.65;100.00;64500.88;5009197;28;20039;-79
2022/08/23 05:22:36;;;;;;;1999.90;999.90;;;;;;;-144.65;100.00;64500.88;5005851;28;20030;-78
2022/08/23 05:25:01;;;;;;;1999.90;999.90;;;;;;;-144.65;100.00;64500.88;5007310;28;20169;-78
2022/08/23 05:27:27;;;;;;;1999.90;999.90;;;;;;;-144.65;100.00;64500.88;4991585;28;20034;-78
2022/08/23 05:29:53;;;;;;;1999.90;999.90;;;;;;;-144.65;100.00;64500.88;4985177;28;20069;-74
2022/08/23 05:32:19;;;;;;;1999.90;999.90;;;;;;;-144.65;100.00;64500.88;4998017;28;20030;-77
2022/08/23 05:34:45;;;;;;;1999.90;999.90;;;;;;;-144.65;100.00;64500.88;4990992;28;20030;-84
2022/08/23 05:37:11;;;;;;;1999.90;999.90;;;;;;;-144.65;100.00;64500.88;4993594;28;20030;-74
2022/08/23 05:39:36;;;;;;;1999.90;999.90;;;;;;;-144.65;100.00;64500.88;4994016;28;20393;-75
2022/08/23 05:42:02;;;;;;;1999.90;999.90;;;;;;;-144.65;100.00;64500.88;4993181;28;20153;-78
2022/08/23 05:44:27;;;;;;;1999.90;999.90;;;;;;;-144.65;100.00;64500.88;4982114;28;20022;-77
2022/08/23 05:46:52;;;;;;;1999.90;999.90;;;;;;;-144.65;100.00;64500.88;4994825;28;20541;-74
2022/08/23 05:49:18;;;;;;;1999.90;999.90;;;;;;;-144.65;100.00;64500.88;4996979;28;20023;-77
2022/08/23 05:51:43;;;;;;;1999.90;999.90;;;;;;;-144.65;100.00;64500.88;4997714;28;20147;-76
2022/08/23 05:54:09;;;;;;;1999.90;999.90;;;;;;;-144.65;100.00;64500.88;4996671;28;20032;-75
2022/08/23 05:56:41;;;;;;;1999.90;999.90;;;;;;;-144.65;100.00;64500.88;5005255;28;20062;-77
2022/08/23 05:59:09;;;;;;;1999.90;999.90;;;;;;;-144.65;100.00;64500.88;5003219;28;20022;-75
2022/08/23 06:01:35;;;;;;;1999.90;999.90;;;;;;;-144.65;100.00;64500.88;5000911;28;20033;-76
2022/08/23 06:04:05;;;;;;;1999.90;999.90;;;;;;;-144.65;100.00;64500.88;5008367;28;20679;-76
2022/08/23 06:06:33;;;;;;;1999.90;999.90;;;;;;;-144.65;100.00;64500.88;4985077;28;20142;-76
2022/08/23 06:08:59;;;;;;;1999.90;999.90;;;;;;;-144.65;100.00;64500.88;5004002;28;20472;-77
2022/08/23 06:11:26;;;;;;;1999.90;999.90;;;;;;;-144.65;100.00;64500.88;5009735;28;20030;-77
2022/08/23 06:13:58;;;;;;;1999.90;999.90;;;;;;;-144.65;100.00;64500.88;4988061;28;20019;-77
2022/08/23 06:16:26;;;;;;;1999.90;999.90;;;;;;;-144.65;100.00;64500.88;5003381;28;20086;-78
2022/08/23 06:18:54;;;;;;;1999.90;999.90;;;;;;;-144.65;100.00;64500.88;5012656;28;20033;-77
2022/08/23 06:21:21;;;;;;;1999.90;999.90;;;;;;;-144.65;100.00;64500.88;5005317;28;20029;-78
2022/08/23 06:23:48;;;;;;;1999.90;999.90;;;;;;;-144.65;100.00;64500.88;4994808;28;20025;-78
2022/08/23 06:26:30;;;;;;;1999.90;999.90;;;;;;;-144.65;100.00;64500.88;5015652;28;20490;-78
2022/08/23 06:28:57;;;;;;;1999.90;999.90;;;;;;;-144.65;100.00;64500.88;5006940;28;20096;-78
2022/08/23 06:34:11;;;;;;;1999.90;999.90;;;;;;;-144.65;100.00;64500.88;5018885;28;20127;-78
2022/08/23 06:36:37;;;;;;;1999.90;999.90;;;;;;;-144.65;100.00;64500.88;5017973;28;20022;-77
2022/08/23 06:39:07;;;;;;;1999.90;999.90;;;;;;;-144.65;100.00;64500.88;5018773;28;20026;-78
2022/08/23 06:41:33;;;;;;;1999.90;999.90;;;;;;;-144.65;100.00;64500.88;5001321;28;20489;-78
2022/08/23 06:43:58;;;;;;;1999.90;999.90;;;;;;;-144.65;100.00;64500.88;4999551;28;20029;-77
2022/08/23 06:46:26;;;;;;;1999.90;999.90;;;;;;;-144.65;100.00;64500.88;5017165;28;20122;-78
2022/08/23 06:48:54;;;;;;;1999.90;999.90;;;;;;;-144.65;100.00;64500.88;4999974;28;20022;-76
2022/08/23 06:51:23;;;;;;;1999.90;999.90;;;;;;;-144.65;100.00;64500.88;5018218;28;20057;-78
2022/08/23 06:53:53;;;;;;;1999.90;999.90;;;;;;;-144.65;100.00;64500.88;5019908;28;20029;-78
2022/08/23 06:56:20;;;;;;;1999.90;999.90;;;;;;;-144.65;100.00;64500.88;5020568;28;20402;-78
2022/08/23 06:58:45;;;;;;;1999.90;999.90;;;;;;;-144.65;100.00;64500.88;5003905;28;20029;-78
2022/08/23 07:01:11;;;;;;;1999.90;999.90;;;;;;;-144.65;100.00;64500.88;5020330;28;20117;-76
2022/08/23 07:03:36;;;;;;;1999.90;999.90;;;;;;;-144.65;100.00;64500.88;5002547;28;20045;-77
2022/08/23 07:06:01;;;;;;;1999.90;999.90;;;;;;;-144.65;100.00;64500.88;5021648;28;20041;-76
2022/08/23 07:08:27;;;;;;;1999.90;999.90;;;;;;;-144.65;100.00;64500.88;5021048;28;20026;-77
2022/08/23 07:10:55;;;;;;;1999.90;999.90;;;;;;;-144.65;100.00;64500.88;5004456;28;20018;-76
2022/08/23 07:13:21;;;;;;;1999.90;999.90;;;;;;;-144.65;100.00;64500.88;5022049;28;20034;-78
2022/08/23 07:15:47;;;;;;;1999.90;999.90;;;;;;;-144.65;100.00;64500.88;5022188;28;20125;-78
2022/08/23 07:18:12;;;;;;;1999.90;999.90;;;;;;;-144.65;100.00;64500.88;5007873;28;20065;-78
2022/08/23 07:20:37;;;;;;;1999.90;999.90;;;;;;;-144.65;100.00;64500.88;5023043;28;20025;-77
2022/08/23 07:23:03;;;;;;;1999.90;999.90;;;;;;;-144.65;100.00;64500.88;5019745;28;20037;-77
2022/08/23 07:25:28;;;;;;;1999.90;999.90;;;;;;;-144.65;100.00;64500.88;5014523;28;20014;-78
2022/08/23 07:27:53;;;;;;;1999.90;999.90;;;;;;;-144.65;100.00;64500.88;5015526;28;20026;-77
2022/08/23 07:30:21;;;;;;;1999.90;999.90;;;;;;;-144.65;100.00;64500.88;4997782;28;20439;-76
2022/08/23 07:32:47;;;;;;;1999.90;999.90;;;;;;;-144.65;100.00;64500.88;5010840;28;20044;-76
2022/08/23 07:35:12;;;;;;;1999.90;999.90;;;;;;;-144.65;100.00;64500.88;5005617;28;20101;-78
2022/08/23 07:37:38;;;;;;;1999.90;999.90;;;;;;;-144.65;100.00;64500.88;4990757;28;20023;-77
2022/08/23 07:40:06;;;;;;;1999.90;999.90;;;;;;;-144.65;100.00;64500.88;4988969;28;20091;-77
2022/08/23 07:42:32;;;;;;;1999.90;999.90;;;;;;;-144.65;100.00;64500.88;4993351;28;20030;-77
2022/08/23 07:44:58;;;;;;;1999.90;999.90;;;;;;;-144.65;100.00;64500.88;5015933;28;20028;-79
2022/08/23 07:47:23;;;;;;;1999.90;999.90;;;;;;;-144.65;100.00;64500.88;4995319;28;20026;-79
2022/08/23 07:49:52;;;;;;;1999.90;999.90;;;;;;;-144.65;100.00;64500.88;5006457;28;20050;-78
2022/08/23 07:52:17;;;;;;;1999.90;999.90;;;;;;;-144.65;100.00;64500.88;5007117;28;20018;-79
2022/08/23 07:54:42;;;;;;;1999.90;999.90;;;;;;;-144.65;100.00;64500.88;5006354;28;20102;-77
2022/08/23 07:57:08;;;;;;;1999.90;999.90;;;;;;;-144.65;100.00;64500.88;5021093;28;20025;-78
2022/08/23 07:59:33;;;;;;;1999.90;999.90;;;;;;;-144.65;100.00;64500.88;5026802;28;20095;-80
2022/08/23 08:01:58;;;;;;;1999.90;999.90;;;;;;;-144.65;100.00;64500.88;5020003;28;20041;-77
2022/08/23 08:04:24;;;;;;;1999.90;999.90;;;;;;;-144.65;100.00;64500.88;4995975;28;20041;-79
2022/08/23 08:06:50;;;;;;;1999.90;999.90;;;;;;;-144.65;100.00;64500.88;5002042;28;20029;-78
2022/08/23 08:09:18;;;;;;;1999.90;999.90;;;;;;;-144.65;100.00;64500.88;5002578;28;20042;-76
2022/08/23 08:11:46;;;;;;;1999.90;999.90;;;;;;;-144.65;100.00;64500.88;5000085;28;20026;-78
2022/08/23 08:14:12;;;;;;;1999.90;999.90;;;;;;;-144.65;100.00;64500.88;5004304;28;20033;-77
2022/08/23 08:16:41;;;;;;;1999.90;999.90;;;;;;;-144.65;100.00;64500.88;5005225;28;20022;-79
2022/08/23 08:19:10;;;;;;;1999.90;999.90;;;;;;;-144.65;100.00;64500.88;5024512;28;20426;-78
2022/08/23 08:21:36;;;;;;;1999.90;999.90;;;;;;;-144.65;100.00;64500.88;5008693;28;20060;-79
2022/08/23 08:24:03;;;;;;;1999.90;999.90;;;;;;;-144.65;100.00;64500.88;5030182;28;20065;-77
2022/08/23 08:26:28;;;;;;;1999.90;999.90;;;;;;;-144.65;100.00;64500.88;5027676;28;20108;-78
2022/08/23 08:28:57;;;;;;;1999.90;999.90;;;;;;;-144.65;100.00;64500.88;5000157;28;20104;-77
2022/08/23 08:31:24;;;;;;;1999.90;999.90;;;;;;;-144.65;100.00;64500.88;5010839;28;20036;-77
2022/08/23 08:33:50;;;;;;;1999.90;999.90;;;;;;;-144.65;100.00;64500.88;4983797;28;20022;-77
2022/08/23 08:36:36;;;;;;;1999.90;999.90;;;;;;;-144.65;100.00;64500.88;4976395;28;20513;-77
2022/08/23 08:39:09;;;;;;;1999.90;999.90;;;;;;;-144.65;100.00;64500.88;5022172;28;20033;-78
2022/08/23 08:41:53;;;;;;;1999.90;999.90;;;;;;;-144.65;100.00;64500.88;5002234;28;20046;-79
2022/08/23 08:44:32;;;;;;;1999.90;999.90;;;;;;;-144.65;100.00;64500.88;4984376;28;20030;-78
2022/08/23 08:46:58;;;;;;;1999.90;999.90;;;;;;;-144.65;100.00;64500.88;5007846;28;20534;-76
2022/08/23 08:49:37;;;;;;;1999.90;999.90;;;;;;;-144.65;100.00;64500.88;5008255;28;20026;-77
2022/08/23 08:52:19;;;;;;;1999.90;999.90;;;;;;;-144.65;100.00;64500.88;5004407;28;20022;-78
2022/08/23 08:54:48;;;;;;;1999.90;999.90;;;;;;;-144.65;100.00;64500.88;4999828;28;20395;-78
2022/08/23 08:57:18;;;;;;;1999.90;999.90;;;;;;;-144.65;100.00;64500.88;5009994;28;20026;-77
2022/08/23 08:59:53;;;;;;;1999.90;999.90;;;;;;;-144.65;100.00;64500.88;4996608;28;20030;-76
2022/08/23 09:02:20;;;;;;;1999.90;999.90;;;;;;;-144.65;100.00;64500.88;5014105;28;20045;-76
2022/08/23 09:04:46;;;;;;;1999.90;999.90;;;;;;;-144.65;100.00;64500.88;4996668;28;20120;-77
2022/08/23 09:07:30;;;;;;;1999.90;999.90;;;;;;;-144.65;100.00;64500.88;5009144;28;20050;-77
2022/08/23 09:10:26;;;;;;;1999.90;999.90;;;;;;;-144.65;100.00;64500.88;4995640;28;20080;-76
2022/08/23 09:13:28;;;;;;;1999.90;999.90;;;;;;;-144.65;100.00;64500.88;4998509;28;20056;-78
2022/08/23 09:16:08;;;;;;;1999.90;999.90;;;;;;;-144.65;100.00;64500.88;5002379;28;20033;-76
2022/08/23 09:18:35;;;;;;;1999.90;999.90;;;;;;;-144.65;100.00;64500.88;4991776;28;20030;-75
2022/08/23 09:21:05;;;;;;;1999.90;999.90;;;;;;;-144.65;100.00;64500.88;5002910;28;20030;-77
2022/08/23 09:23:43;;;;;;;1999.90;999.90;;;;;;;-144.65;100.00;64500.88;5000666;28;20026;-76
2022/08/23 09:26:22;;;;;;;1999.90;999.90;;;;;;;-144.65;100.00;64500.88;4984060;28;20065;-77
2022/08/23 09:29:12;;;;;;;1999.90;999.90;;;;;;;-144.65;100.00;64500.88;5017807;28;20014;-79
2022/08/23 09:31:44;;;;;;;1999.90;999.90;;;;;;;-144.65;100.00;64500.88;5016372;28;20042;-76
2022/08/23 09:34:18;;;;;;;1999.90;999.90;;;;;;;-144.65;100.00;64500.88;5017319;28;20021;-79
2022/08/23 09:36:43;;;;;;;1999.90;999.90;;;;;;;-144.65;100.00;64500.88;5020239;28;20013;-79
2022/08/23 09:39:27;;;;;;;1999.90;999.90;;;;;;;-144.65;100.00;64500.88;5038629;28;20006;-76
2022/08/23 09:41:53;;;;;;;1999.90;999.90;;;;;;;-144.65;100.00;64500.88;5021087;28;20037;-76
2022/08/23 09:44:38;;;;;;;1999.90;999.90;;;;;;;-144.65;100.00;64500.88;5038137;28;20036;-77
2022/08/23 09:47:14;;;;;;;1999.90;999.90;;;;;;;-144.65;100.00;64500.88;5021494;28;20014;-83
2022/08/23 09:49:43;;;;;;;1999.90;999.90;;;;;;;-144.65;100.00;64500.88;5038397;28;20010;-76
2022/08/23 09:52:24;;;;;;;1999.90;999.90;;;;;;;-144.65;100.00;64500.88;5038213;28;20022;-77
2022/08/23 09:55:25;;;;;;;1999.90;999.90;;;;;;;-144.65;100.00;64500.88;5017219;28;20045;-80
2022/08/23 09:57:51;;;;;;;1999.90;999.90;;;;;;;-144.65;100.00;64500.88;5037849;28;20053;-77
2022/08/23 10:00:32;;;;;;;1999.90;999.90;;;;;;;-144.65;100.00;64500.88;5044692;28;20018;-76
2022/08/23 10:03:18;;;;;;;1999.90;999.90;;;;;;;-144.65;100.00;64500.88;5046254;28;20034;-77
2022/08/23 10:05:50;;;;;;;1999.90;999.90;;;;;;;-144.65;100.00;64500.88;5047729;28;20052;-75
2022/08/23 10:08:52;;;;;;;1999.90;999.90;;;;;;;-144.65;100.00;64500.88;5064465;28;20017;-76
2022/08/23 10:11:27;;;;;;;1999.90;999.90;;;;;;;-144.65;100.00;64500.88;5064457;28;20036;-78
2022/08/23 10:13:53;;;;;;;1999.90;999.90;;;;;;;-144.65;100.00;64500.88;5064305;28;20013;-78
2022/08/23 10:16:47;;;;;;;1999.90;999.90;;;;;;;-144.65;100.00;64500.88;5047001;28;20025;-77
2022/08/23 10:19:33;;;;;;;1999.90;999.90;;;;;;;-144.65;100.00;64500.88;5064809;28;20069;-74
2022/08/23 10:22:21;;;;;;;1999.90;999.90;;;;;;;-144.65;100.00;64500.88;5047351;28;20009;-75
2022/08/23 10:25:06;;;;;;;1999.90;999.90;;;;;;;-144.65;100.00;64500.88;5064370;28;20037;-75
2022/08/23 10:31:24;;;;;;;1999.90;999.90;;;;;;;-144.65;100.00;64500.88;5063746;28;20048;-79
2022/08/23 10:34:19;;;;;;;1999.90;999.90;;;;;;;-144.65;100.00;64500.88;5040791;28;20033;-77
2022/08/23 10:36:47;;;;;;;1999.90;999.90;;;;;;;-144.65;100.00;64500.88;5044605;28;20017;-78
2022/08/23 10:39:26;;;;;;;1999.90;999.90;;;;;;;-144.65;100.00;64500.88;5047043;28;20013;-77
2022/08/23 10:42:15;;;;;;;1999.90;999.90;;;;;;;-144.65;100.00;64500.88;5064110;28;20033;-79
2022/08/23 10:44:58;;;;;;;1999.90;999.90;;;;;;;-144.65;100.00;64500.88;5046514;28;20055;-77
2022/08/23 10:47:40;;;;;;;1999.90;999.90;;;;;;;-144.65;100.00;64500.88;5047157;28;20033;-77
2022/08/23 10:50:13;;;;;;;1999.90;999.90;;;;;;;-144.65;100.00;64500.88;5063988;28;20021;-79
2022/08/23 10:53:04;;;;;;;1999.90;999.90;;;;;;;-144.65;100.00;64500.88;5046676;28;20033;-78
2022/08/23 10:55:43;;;;;;;1999.90;999.90;;;;;;;-144.65;100.00;64500.88;5046332;28;20021;-80
2022/08/23 10:58:26;;;;;;;1999.90;999.90;;;;;;;-144.65;100.00;64500.88;5062358;28;20045;-78